Monday, December 18, 2017, 5:19 PM EST
Back to Local

KOKV, Winchester Regional

Location: Winchester, VA, United States Lat: 39.15
Local Time: 5:19 PM EST (22:19 GMT) Lon: -78.15
Time Zone: US/Eastern Elev: 728 ft

Show me the last for .
Show Decoded

2017-12-18 16:35 METAR KOKV 182135Z AUTO 00000KT 10SM BKN048 OVC055 10/04 A2998 RMK AO2 =
2017-12-18 16:15 METAR KOKV 182115Z AUTO 29003KT 10SM OVC046 11/04 A2998 RMK AO2 =
2017-12-18 15:55 METAR KOKV 182055Z AUTO 26003KT 10SM OVC044 11/04 A2997 RMK AO2 =
2017-12-18 15:35 METAR KOKV 182035Z AUTO 26003KT 10SM OVC044 11/04 A2997 RMK AO2 =
2017-12-18 15:15 METAR KOKV 182015Z AUTO 25003KT 10SM OVC044 11/04 A2998 RMK AO2 =
2017-12-18 14:55 METAR KOKV 181955Z AUTO 26005KT 10SM OVC044 11/03 A2998 RMK AO2 =
2017-12-18 14:35 METAR KOKV 181935Z AUTO 23006KT 10SM OVC044 11/03 A2997 RMK AO2 =
2017-12-18 14:15 METAR KOKV 181915Z AUTO 22005KT 10SM OVC044 11/03 A2998 RMK AO2 =
2017-12-18 13:55 METAR KOKV 181855Z AUTO 25007KT 10SM OVC046 12/03 A2999 RMK AO2 =
2017-12-18 13:35 METAR KOKV 181835Z AUTO 20007KT 10SM BKN046 BKN065 12/03 A2999 RMK AO2 =
2017-12-18 13:15 METAR KOKV 181815Z AUTO 20008KT 10SM SCT046 12/02 A2999 RMK AO2 =
2017-12-18 12:55 METAR KOKV 181755Z AUTO 19010KT 10SM CLR 11/02 A3000 RMK AO2 =
2017-12-18 12:35 METAR KOKV 181735Z AUTO 19008KT 170V230 10SM CLR 11/02 A3000 RMK AO2 =
2017-12-18 12:15 METAR KOKV 181715Z AUTO 19006KT 10SM CLR 11/02 A3001 RMK AO2 =
2017-12-18 11:55 METAR KOKV 181655Z AUTO 17005KT 10SM CLR 10/02 A3003 RMK AO2 =
2017-12-18 11:35 METAR KOKV 181635Z AUTO 20005KT 10SM CLR 10/02 A3004 RMK AO2 =
2017-12-18 11:15 METAR KOKV 181615Z AUTO 19003KT 10SM CLR 09/02 A3006 RMK AO2 =
2017-12-18 10:55 METAR KOKV 181555Z AUTO 25005KT 10SM SCT050 08/01 A3008 RMK AO2 =
2017-12-18 10:35 METAR KOKV 181535Z AUTO 20005KT 10SM BKN050 07/01 A3009 RMK AO2 =
2017-12-18 10:15 METAR KOKV 181515Z AUTO 22004KT 10SM OVC050 06/01 A3010 RMK AO2 =
2017-12-18 09:55 METAR KOKV 181455Z AUTO 00000KT 10SM OVC050 05/01 A3010 RMK AO2 =
2017-12-18 09:35 METAR KOKV 181435Z AUTO 00000KT 10SM OVC048 05/01 A3010 RMK AO2 =
2017-12-18 09:15 METAR KOKV 181415Z AUTO 22004KT 10SM OVC050 04/00 A3010 RMK AO2 =
2017-12-18 08:55 METAR KOKV 181355Z AUTO 00000KT 10SM SCT044 OVC055 03/00 A3011 RMK AO2 =
2017-12-18 08:35 METAR KOKV 181335Z AUTO 00000KT 7SM OVC042 03/00 A3012 RMK AO2 =
2017-12-18 08:15 METAR KOKV 181315Z AUTO 00000KT 7SM OVC044 02/00 A3011 RMK AO2 =
2017-12-18 07:55 METAR KOKV 181255Z AUTO 00000KT 7SM OVC048 02/00 A3011 RMK AO2 =
2017-12-18 07:35 METAR KOKV 181235Z AUTO 00000KT 7SM OVC048 02/00 A3011 RMK AO2 =
2017-12-18 07:15 METAR KOKV 181215Z AUTO 00000KT 10SM SCT033 OVC050 02/00 A3011 RMK AO2 =
2017-12-18 06:55 METAR KOKV 181155Z AUTO 00000KT 10SM BKN033 OVC050 01/00 A3011 RMK AO2 =
2017-12-18 06:35 METAR KOKV 181135Z AUTO 00000KT 7SM BKN035 OVC050 01/00 A3011 RMK AO2 =
2017-12-18 06:15 METAR KOKV 181115Z AUTO 00000KT 10SM OVC035 01/00 A3011 RMK AO2 =
2017-12-18 05:55 METAR KOKV 181055Z AUTO 00000KT 10SM OVC037 01/00 A3010 RMK AO2 =
2017-12-18 05:35 METAR KOKV 181035Z AUTO 00000KT 10SM SCT036 OVC041 01/00 A3010 RMK AO2 =
2017-12-18 05:15 METAR KOKV 181015Z AUTO 13003KT 10SM OVC036 01/00 A3010 RMK AO2 =
2017-12-18 04:55 METAR KOKV 180955Z AUTO 00000KT 10SM BKN038 BKN046 OVC060 01/00 A3010 RMK AO2 =
2017-12-18 04:35 METAR KOKV 180935Z AUTO 00000KT 10SM SCT036 OVC060 02/00 A3010 RMK AO2 =
2017-12-18 04:15 METAR KOKV 180915Z AUTO 00000KT 10SM OVC038 02/00 A3010 RMK AO2 =
2017-12-18 03:55 METAR KOKV 180855Z AUTO 00000KT 10SM OVC040 02/00 A3010 RMK AO2 =
2017-12-18 03:35 METAR KOKV 180835Z AUTO 00000KT 10SM OVC040 03/00 A3010 RMK AO2 =
2017-12-18 03:15 METAR KOKV 180815Z AUTO 00000KT 10SM OVC040 03/00 A3010 RMK AO2 =
2017-12-18 02:55 METAR KOKV 180755Z AUTO 00000KT 10SM OVC042 03/00 A3010 RMK AO2 =
2017-12-18 02:35 METAR KOKV 180735Z AUTO 00000KT 10SM OVC044 03/00 A3011 RMK AO2 =
2017-12-18 02:15 METAR KOKV 180715Z AUTO 00000KT 10SM OVC044 03/00 A3010 RMK AO2 =
2017-12-18 01:55 METAR KOKV 180655Z AUTO 00000KT 10SM OVC046 03/00 A3010 RMK AO2 =
2017-12-18 01:35 METAR KOKV 180635Z AUTO 00000KT 10SM OVC046 03/01 A3010 RMK AO2 =
2017-12-18 01:15 METAR KOKV 180615Z AUTO 00000KT 10SM OVC048 03/01 A3010 RMK AO2 =
2017-12-18 00:55 METAR KOKV 180555Z AUTO 00000KT 10SM OVC048 03/01 A3010 RMK AO2 =
2017-12-18 00:35 METAR KOKV 180535Z AUTO 00000KT 10SM OVC050 03/01 A3011 RMK AO2 =
2017-12-18 00:15 METAR KOKV 180515Z AUTO 00000KT 10SM SCT045 OVC050 03/01 A3012 RMK AO2 =
2017-12-17 23:55 METAR KOKV 180455Z AUTO 00000KT 10SM BKN041 OVC050 03/01 A3012 RMK AO2 =
2017-12-17 23:35 METAR KOKV 180435Z AUTO 00000KT 10SM OVC043 03/01 A3013 RMK AO2 =
2017-12-17 23:15 METAR KOKV 180415Z AUTO 00000KT 10SM OVC048 03/01 A3013 RMK AO2 =
2017-12-17 22:55 METAR KOKV 180355Z AUTO 00000KT 10SM OVC050 03/01 A3012 RMK AO2 =
2017-12-17 22:35 METAR KOKV 180335Z AUTO 00000KT 10SM OVC060 03/01 A3013 RMK AO2 =
2017-12-17 22:15 METAR KOKV 180315Z AUTO 00000KT 10SM OVC060 03/01 A3013 RMK AO2 =
2017-12-17 21:55 METAR KOKV 180255Z AUTO 00000KT 10SM RA OVC060 03/00 A3013 RMK AO2 =
2017-12-17 21:40 METAR KOKV 180240Z AUTO 00000KT 10SM OVC060 03/00 A3013 RMK AO2 =
2017-12-17 21:10 METAR KOKV 180210Z AUTO 00000KT 10SM BKN060 BKN075 OVC080 03/01 A3014 RMK AO2 =
2017-12-17 20:55 METAR KOKV 180155Z AUTO 00000KT 10SM -DZ SCT060 OVC085 03/00 A3013 RMK AO2 =
2017-12-17 20:35 METAR KOKV 180135Z AUTO 00000KT 10SM -DZ BKN060 OVC070 03/00 A3013 RMK AO2 =
2017-12-17 20:15 METAR KOKV 180115Z AUTO 00000KT 10SM SCT070 OVC080 03/00 A3013 RMK AO2 =
2017-12-17 19:55 METAR KOKV 180055Z AUTO 00000KT 10SM OVC090 04/M01 A3015 RMK AO2 =
2017-12-17 19:35 METAR KOKV 180035Z AUTO 00000KT 10SM OVC090 04/M01 A3015 RMK AO2 =
2017-12-17 19:15 METAR KOKV 180015Z AUTO 00000KT 10SM OVC090 04/M01 A3014 RMK AO2 =
2017-12-17 18:55 METAR KOKV 172355Z AUTO 00000KT 10SM OVC090 04/M01 A3014 RMK AO2 =
2017-12-17 18:35 METAR KOKV 172335Z AUTO 00000KT 10SM OVC090 05/M01 A3016 RMK AO2 =
2017-12-17 18:15 METAR KOKV 172315Z AUTO 00000KT 10SM SCT070 OVC090 05/M01 A3017 RMK AO2 =
2017-12-17 17:55 METAR KOKV 172255Z AUTO 00000KT 10SM BKN065 OVC090 05/M01 A3017 RMK AO2 =
2017-12-17 17:35 METAR KOKV 172235Z AUTO 00000KT 10SM OVC090 05/M01 A3017 RMK AO2 =

Support USWX by starting your Amazon purchase here.